Time;durP1;ratioP1;P1;durP2;ratioP2;P2;SDS_P1;SDS_P2;PMS_P1;PMS_P2;Temp;Humidity;BMP_temperature;BMP_pressure;BME280_temperature;BME280_humidity;BME280_pressure;Samples;Min_cycle;Max_cycle;Signal;HPM_P1;HPM_P2
2021/01/05 00:00:12;;;;;;;103.13;46.28;;;179.30;2252.80;;;;;;5012056;28;20026;-77
2021/01/05 00:02:38;;;;;;;118.60;48.67;;;179.30;2252.80;;;;;;5016079;28;20117;-77
2021/01/05 00:05:05;;;;;;;98.20;44.05;;;179.30;2252.80;;;;;;5019924;28;20116;-77
2021/01/05 00:07:31;;;;;;;103.50;44.40;;;179.20;2252.80;;;;;;5003866;28;20389;-77
2021/01/05 00:09:57;;;;;;;95.53;44.80;;;179.20;2252.80;;;;;;4996047;28;20023;-77
2021/01/05 00:12:23;;;;;;;88.93;44.05;;;179.20;2252.80;;;;;;5007138;28;20034;-78
2021/01/05 00:14:49;;;;;;;87.55;43.50;;;179.30;2252.80;;;;;;4999730;28;20027;-77
2021/01/05 00:17:20;;;;;;;88.20;42.58;;;179.20;2252.80;;;;;;5020215;28;20018;-77
2021/01/05 00:19:47;;;;;;;98.40;43.80;;;179.20;2252.80;;;;;;5004551;28;20037;-77
2021/01/05 00:22:14;;;;;;;94.80;45.10;;;179.30;2252.80;;;;;;5022926;28;20034;-77
2021/01/05 00:24:40;;;;;;;97.40;46.47;;;179.20;2252.80;;;;;;4997719;28;20041;-77
2021/01/05 00:27:06;;;;;;;94.13;45.22;;;179.20;2252.80;;;;;;5020826;28;20052;-77
2021/01/05 00:29:32;;;;;;;89.13;46.80;;;179.20;2252.80;;;;;;5007937;28;20018;-76
2021/01/05 00:32:02;;;;;;;92.00;47.80;;;179.30;2252.80;;;;;;5019709;28;20085;-77
2021/01/05 00:34:28;;;;;;;90.70;45.83;;;179.20;2252.80;;;;;;5019502;28;20398;-78
2021/01/05 00:36:54;;;;;;;91.25;46.92;;;179.30;2252.80;;;;;;5002983;28;20026;-77
2021/01/05 00:39:20;;;;;;;94.75;46.30;;;179.20;2252.80;;;;;;5002330;28;20056;-77
2021/01/05 00:41:46;;;;;;;85.82;49.08;;;179.30;2252.80;;;;;;5004135;28;20129;-78
2021/01/05 00:44:11;;;;;;;95.97;47.53;;;179.20;2252.80;;;;;;5018865;28;20026;-78
2021/01/05 00:46:37;;;;;;;98.70;50.00;;;179.20;2252.80;;;;;;5016112;28;20438;-77
2021/01/05 00:49:03;;;;;;;92.03;46.80;;;179.20;2252.80;;;;;;5020862;28;20044;-77
2021/01/05 00:51:29;;;;;;;95.07;46.65;;;179.20;2252.80;;;;;;5018921;28;20022;-77
2021/01/05 00:53:55;;;;;;;94.10;48.05;;;179.20;2252.80;;;;;;5016834;28;20022;-77
2021/01/05 00:56:20;;;;;;;81.70;44.80;;;179.20;2252.80;;;;;;4991172;28;20354;-77
2021/01/05 00:58:46;;;;;;;92.78;49.08;;;179.20;2252.80;;;;;;5020272;28;20038;-77
2021/01/05 01:01:14;;;;;;;87.45;45.33;;;179.20;2252.80;;;;;;5019960;28;20025;-77
2021/01/05 01:03:39;;;;;;;88.72;45.72;;;179.20;2252.80;;;;;;5019259;28;20033;-78
2021/01/05 01:06:07;;;;;;;79.38;43.67;;;179.20;2252.80;;;;;;5002044;28;20041;-77
2021/01/05 01:08:33;;;;;;;79.00;44.70;;;154.50;2252.80;;;;;;5001146;28;20116;-77
2021/01/05 01:10:59;;;;;;;90.97;46.47;;;154.50;2252.80;;;;;;5018991;28;20464;-77
2021/01/05 01:13:25;;;;;;;92.63;45.97;;;179.20;2252.80;;;;;;5020311;28;20018;-78
2021/01/05 01:15:51;;;;;;;90.93;42.35;;;154.50;2252.80;;;;;;5000176;28;20057;-77
2021/01/05 01:18:17;;;;;;;84.97;44.38;;;179.20;2252.80;;;;;;5015637;28;20049;-77
2021/01/05 01:20:43;;;;;;;81.70;42.42;;;179.20;2252.80;;;;;;5016439;28;20026;-78
2021/01/05 01:23:08;;;;;;;79.82;42.60;;;179.20;2252.80;;;;;;5017990;28;20023;-77
2021/01/05 01:25:37;;;;;;;81.88;43.08;;;154.50;2252.80;;;;;;5020746;28;20046;-78
2021/01/05 01:28:03;;;;;;;71.85;39.20;;;179.20;2252.80;;;;;;5016901;28;20291;-77
2021/01/05 01:30:29;;;;;;;71.63;37.95;;;154.50;2252.80;;;;;;5002320;28;20037;-77
2021/01/05 01:32:54;;;;;;;84.60;41.53;;;154.50;2252.80;;;;;;5004264;28;20129;-78
2021/01/05 01:35:20;;;;;;;77.32;40.20;;;179.20;2252.80;;;;;;5012232;28;20442;-78
2021/01/05 01:37:46;;;;;;;69.70;38.65;;;179.20;2252.80;;;;;;5001088;28;20038;-78
2021/01/05 01:40:13;;;;;;;77.63;39.60;;;179.20;2252.80;;;;;;5007440;28;20461;-78
2021/01/05 01:42:39;;;;;;;72.18;39.75;;;154.40;2252.80;;;;;;4997984;28;20069;-77
2021/01/05 01:45:06;;;;;;;63.88;34.10;;;179.20;2252.80;;;;;;4995368;28;20022;-78
2021/01/05 01:47:42;;;;;;;65.40;38.28;;;179.20;2252.80;;;;;;5021752;28;20047;-77
2021/01/05 01:50:23;;;;;;;67.95;36.22;;;179.20;2252.80;;;;;;5013238;28;20033;-78
2021/01/05 01:53:10;;;;;;;73.40;38.70;;;179.20;2252.80;;;;;;5001702;28;20034;-77
2021/01/05 01:55:41;;;;;;;78.00;39.72;;;179.30;2252.80;;;;;;4990415;28;20023;-77
2021/01/05 01:58:45;;;;;;;68.30;38.13;;;179.20;2252.80;;;;;;5007389;28;20469;-77
2021/01/05 02:01:39;;;;;;;64.35;35.70;;;179.20;2252.80;;;;;;4999483;28;20290;-78
2021/01/05 02:04:29;;;;;;;72.30;38.45;;;179.30;2252.80;;;;;;5009884;28;20018;-77
2021/01/05 02:07:07;;;;;;;74.10;38.17;;;179.20;2252.80;;;;;;5010461;28;20034;-77
2021/01/05 02:09:45;;;;;;;68.47;38.53;;;179.20;2252.80;;;;;;4990576;28;20033;-77
2021/01/05 02:12:34;;;;;;;77.70;41.63;;;179.20;2252.80;;;;;;5018574;28;20200;-77
2021/01/05 02:15:09;;;;;;;76.40;38.72;;;179.20;2252.80;;;;;;5017140;28;20438;-77
2021/01/05 02:17:59;;;;;;;81.53;41.38;;;179.30;2252.80;;;;;;4990007;28;20038;-77
2021/01/05 02:20:39;;;;;;;81.50;42.13;;;179.20;2252.80;;;;;;5016363;28;20030;-77
2021/01/05 02:23:43;;;;;;;74.25;41.78;;;179.30;2252.80;;;;;;5000149;28;20149;-76
2021/01/05 02:26:30;;;;;;;74.60;38.92;;;179.20;2252.80;;;;;;4995298;28;20057;-77
2021/01/05 02:29:10;;;;;;;66.72;35.67;;;179.20;2252.80;;;;;;5000333;28;20018;-76
2021/01/05 02:32:00;;;;;;;69.53;36.90;;;179.20;2252.80;;;;;;4998535;28;20050;-77
2021/01/05 02:34:46;;;;;;;74.68;39.95;;;179.20;2252.80;;;;;;4998463;28;20054;-77
2021/01/05 02:37:26;;;;;;;76.50;39.55;;;179.20;2252.80;;;;;;5000294;28;20066;-77
2021/01/05 02:40:23;;;;;;;69.20;40.63;;;179.20;2252.80;;;;;;4999396;28;20121;-77
2021/01/05 02:42:58;;;;;;;69.85;40.25;;;179.20;2252.80;;;;;;4993386;28;20026;-77
2021/01/05 02:45:47;;;;;;;78.35;40.78;;;154.50;2252.80;;;;;;4981217;28;20054;-77
2021/01/05 02:48:31;;;;;;;85.88;43.88;;;154.50;2252.80;;;;;;4981915;28;20074;-77
2021/01/05 02:51:52;;;;;;;93.18;44.10;;;154.50;2252.80;;;;;;4982403;28;20050;-77
2021/01/05 02:54:59;;;;;;;90.85;46.03;;;154.50;2252.80;;;;;;4948798;28;20074;-77
2021/01/05 02:57:47;;;;;;;91.65;45.67;;;154.40;2252.80;;;;;;4988394;28;20026;-77
2021/01/05 03:00:19;;;;;;;97.63;49.95;;;154.50;2252.80;;;;;;4995959;28;20037;-77
2021/01/05 03:02:48;;;;;;;91.90;46.92;;;154.50;2252.80;;;;;;4993285;28;20390;-77
2021/01/05 03:05:14;;;;;;;106.03;46.33;;;154.40;2252.80;;;;;;4985537;28;20026;-77
2021/01/05 03:07:40;;;;;;;107.35;49.85;;;154.40;2252.80;;;;;;4997163;28;20025;-77
2021/01/05 03:10:54;;;;;;;105.03;51.63;;;154.40;2252.80;;;;;;4990894;28;20022;-78
2021/01/05 03:13:44;;;;;;;111.22;51.35;;;154.40;2252.80;;;;;;4988873;28;20049;-77
2021/01/05 03:16:18;;;;;;;118.30;56.33;;;154.40;2252.80;;;;;;4996646;28;20061;-77
2021/01/05 03:18:49;;;;;;;120.88;53.58;;;154.40;2252.80;;;;;;4997068;28;20062;-77
2021/01/05 03:21:24;;;;;;;102.80;50.25;;;154.30;2252.80;;;;;;4992425;28;20027;-77
2021/01/05 03:23:50;;;;;;;;;;;154.30;2252.80;;;;;;4981385;28;20034;-77
2021/01/05 03:26:21;;;;;;;102.38;48.00;;;154.30;2252.80;;;;;;4997772;28;19924;-77
2021/01/05 03:28:47;;;;;;;97.07;48.70;;;154.30;2252.80;;;;;;5000293;28;20038;-77
2021/01/05 03:31:26;;;;;;;89.28;47.28;;;154.30;2252.80;;;;;;4982625;28;20080;-77
2021/01/05 03:33:57;;;;;;;102.45;48.92;;;154.30;2252.80;;;;;;5000945;28;20029;-77
2021/01/05 03:36:23;;;;;;;90.90;47.55;;;154.30;2252.80;;;;;;5017544;28;20025;-77
2021/01/05 03:38:48;;;;;;;102.28;50.50;;;154.20;2252.80;;;;;;5017645;28;20032;-77
2021/01/05 03:41:14;;;;;;;98.18;49.45;;;154.20;2252.80;;;;;;5010214;28;20052;-77
2021/01/05 03:43:40;;;;;;;95.95;50.28;;;154.30;2252.80;;;;;;4985271;28;20098;-77
2021/01/05 03:46:06;;;;;;;109.57;51.15;;;154.20;2252.80;;;;;;4981376;28;20060;-77
2021/01/05 03:48:32;;;;;;;92.75;48.55;;;154.20;2252.80;;;;;;5015013;28;20029;-77
2021/01/05 03:50:57;;;;;;;95.80;48.00;;;154.20;2252.80;;;;;;5010658;28;20019;-77
2021/01/05 03:53:23;;;;;;;105.63;52.33;;;154.20;2252.80;;;;;;5009293;28;20030;-77
2021/01/05 03:55:52;;;;;;;101.68;52.15;;;154.20;2252.80;;;;;;5010554;28;20033;-77
2021/01/05 03:58:18;;;;;;;89.15;46.55;;;154.20;2252.80;;;;;;5000079;28;20059;-78
2021/01/05 04:00:44;;;;;;;112.70;51.17;;;154.20;2252.80;;;;;;4999069;28;20053;-77
2021/01/05 04:03:10;;;;;;;106.35;50.67;;;154.20;2252.80;;;;;;4993939;28;20041;-76
2021/01/05 04:05:35;;;;;;;100.80;52.35;;;154.20;2252.80;;;;;;5019475;28;20025;-78
2021/01/05 04:08:01;;;;;;;110.03;50.72;;;154.10;2252.80;;;;;;5020290;28;20026;-78
2021/01/05 04:10:27;;;;;;;107.57;48.63;;;154.20;2252.80;;;;;;5015570;28;20026;-77
2021/01/05 04:12:53;;;;;;;114.30;52.40;;;154.40;2252.80;;;;;;4999904;28;20056;-77
2021/01/05 04:15:23;;;;;;;111.30;49.25;;;154.10;2252.80;;;;;;4991937;28;20105;-77
2021/01/05 04:17:50;;;;;;;106.45;52.53;;;154.20;2252.80;;;;;;5019690;28;20061;-77
2021/01/05 04:20:17;;;;;;;101.55;49.63;;;154.10;2252.80;;;;;;4992434;28;20049;-77
2021/01/05 04:22:43;;;;;;;96.78;48.65;;;154.20;2252.80;;;;;;5011996;28;20026;-77
2021/01/05 04:25:09;;;;;;;111.47;52.40;;;154.10;2252.80;;;;;;4996739;28;20057;-77
2021/01/05 04:27:35;;;;;;;117.82;54.40;;;154.20;2252.80;;;;;;5009023;28;20030;-77
2021/01/05 04:30:03;;;;;;;124.90;56.00;;;154.20;2252.80;;;;;;5000829;28;20025;-77
2021/01/05 04:32:29;;;;;;;125.82;55.97;;;154.20;2252.80;;;;;;5000453;28;20385;-77
2021/01/05 04:34:54;;;;;;;132.40;61.60;;;154.10;2252.80;;;;;;4985687;28;20072;-77
2021/01/05 04:37:20;;;;;;;119.63;58.63;;;154.10;2252.80;;;;;;5000886;28;20029;-77
2021/01/05 04:39:46;;;;;;;131.20;58.67;;;154.10;2252.80;;;;;;4993444;28;20030;-77
2021/01/05 04:42:24;;;;;;;125.10;59.15;;;154.10;2252.80;;;;;;5000652;28;20116;-77
2021/01/05 04:44:54;;;;;;;141.82;60.35;;;154.10;2252.80;;;;;;5000253;28;20330;-77
2021/01/05 04:47:41;;;;;;;146.02;64.20;;;154.10;2252.80;;;;;;4992613;28;20033;-77
2021/01/05 04:50:19;;;;;;;148.85;64.90;;;154.20;2252.80;;;;;;5020717;28;20137;-77
2021/01/05 04:52:54;;;;;;;147.95;66.40;;;154.10;2252.80;;;;;;5022966;28;20084;-77
2021/01/05 04:55:39;;;;;;;158.07;64.28;;;154.20;2252.80;;;;;;5010808;28;20026;-76
2021/01/05 04:58:34;;;;;;;155.13;65.88;;;154.10;2252.80;;;;;;5007427;28;20029;-77
2021/01/05 05:01:02;;;;;;;;;;;154.20;2252.80;;;;;;4990673;28;20115;-77
2021/01/05 05:04:02;;;;;;;153.77;64.22;;;154.00;2252.80;;;;;;4995781;28;19955;-76
2021/01/05 05:06:36;;;;;;;138.55;59.38;;;154.10;2252.80;;;;;;4987424;28;20030;-76
2021/01/05 05:09:39;;;;;;;152.40;60.20;;;154.10;2252.80;;;;;;4998312;28;20014;-76
2021/01/05 05:12:16;;;;;;;137.07;64.10;;;154.00;2252.80;;;;;;4999890;28;20148;-76
2021/01/05 05:15:20;;;;;;;139.82;63.88;;;154.00;2252.80;;;;;;4997570;28;20113;-76
2021/01/05 05:18:10;;;;;;;156.70;64.25;;;154.00;2252.80;;;;;;5011565;28;20515;-77
2021/01/05 05:21:05;;;;;;;139.60;59.53;;;153.90;2252.80;;;;;;4997236;28;20026;-76
2021/01/05 05:23:50;;;;;;;141.40;63.92;;;153.90;2252.80;;;;;;5008021;28;20029;-77
2021/01/05 05:26:29;;;;;;;142.13;61.53;;;154.00;2252.80;;;;;;5017184;28;20099;-76
2021/01/05 05:29:10;;;;;;;151.70;66.93;;;153.90;2252.80;;;;;;5015418;28;20311;-76
2021/01/05 05:31:36;;;;;;;171.40;69.30;;;153.90;2252.80;;;;;;5003469;28;20426;-76
2021/01/05 05:34:12;;;;;;;161.32;67.03;;;153.90;2252.80;;;;;;5002888;28;20030;-76
2021/01/05 05:37:05;;;;;;;149.98;65.05;;;153.90;2252.80;;;;;;5002138;28;20450;-76
2021/01/05 05:40:01;;;;;;;141.20;64.95;;;154.00;2252.80;;;;;;5005883;28;20040;-76
2021/01/05 05:42:49;;;;;;;167.45;70.18;;;153.90;2252.80;;;;;;5009865;28;20099;-76
2021/01/05 05:45:24;;;;;;;148.98;64.13;;;153.90;2252.80;;;;;;5001472;28;20037;-77
2021/01/05 05:47:53;;;;;;;146.90;66.75;;;153.90;2252.80;;;;;;5001287;28;20036;-76
2021/01/05 05:50:25;;;;;;;146.07;66.15;;;153.90;2252.80;;;;;;5021065;28;20120;-76
2021/01/05 05:53:02;;;;;;;142.10;65.07;;;153.90;2252.80;;;;;;5016002;28;20030;-76
2021/01/05 05:56:01;;;;;;;145.05;69.05;;;153.90;2252.80;;;;;;5017778;28;20021;-76
2021/01/05 05:58:37;;;;;;;147.82;63.80;;;154.00;2252.80;;;;;;5020366;28;20482;-76
2021/01/05 06:01:10;;;;;;;135.93;64.22;;;154.00;2252.80;;;;;;5001934;28;20026;-76
2021/01/05 06:03:36;;;;;;;124.90;60.20;;;154.00;2252.80;;;;;;4998217;28;20029;-76
2021/01/05 06:06:04;;;;;;;133.88;63.70;;;153.90;2252.80;;;;;;4995296;28;20030;-76
2021/01/05 06:08:30;;;;;;;121.82;60.28;;;154.00;2252.80;;;;;;4989289;28;20346;-76
2021/01/05 06:10:56;;;;;;;141.48;61.75;;;153.90;2252.80;;;;;;5003603;28;20025;-76
2021/01/05 06:13:22;;;;;;;128.05;63.15;;;154.00;2252.80;;;;;;5014613;28;20018;-76
2021/01/05 06:15:48;;;;;;;125.68;59.42;;;153.90;2252.80;;;;;;4999477;28;20338;-76
2021/01/05 06:18:15;;;;;;;120.95;57.35;;;154.00;2252.80;;;;;;4990014;28;20026;-76
2021/01/05 06:20:41;;;;;;;128.93;58.95;;;153.90;2252.80;;;;;;5014604;28;20157;-76
2021/01/05 06:23:07;;;;;;;136.68;61.63;;;154.00;2252.80;;;;;;5007063;28;20343;-76
2021/01/05 06:25:33;;;;;;;114.85;57.13;;;154.00;2252.80;;;;;;4999061;28;20145;-76
2021/01/05 06:28:00;;;;;;;116.65;56.70;;;154.00;2252.80;;;;;;5004202;28;20085;-76
2021/01/05 06:30:26;;;;;;;117.57;56.83;;;153.90;2252.80;;;;;;4997945;28;20339;-76
2021/01/05 06:32:52;;;;;;;97.68;50.42;;;153.90;2252.80;;;;;;5002217;28;20022;-76
2021/01/05 06:35:21;;;;;;;107.45;52.00;;;153.90;2252.80;;;;;;4992139;28;20030;-76
2021/01/05 06:37:50;;;;;;;101.68;53.97;;;153.90;2252.80;;;;;;4993635;28;20025;-76
2021/01/05 06:40:19;;;;;;;99.45;53.90;;;153.90;2252.80;;;;;;5018517;28;20033;-76
2021/01/05 06:42:45;;;;;;;95.13;51.55;;;153.90;2252.80;;;;;;5000348;28;20457;-77
2021/01/05 06:45:41;;;;;;;97.40;55.78;;;153.80;2252.80;;;;;;5011831;28;20022;-76
2021/01/05 06:48:07;;;;;;;106.78;55.88;;;153.80;2252.80;;;;;;5003204;28;20048;-76
2021/01/05 06:50:33;;;;;;;94.70;52.47;;;153.80;2252.80;;;;;;4996555;28;20448;-76
2021/01/05 06:52:59;;;;;;;87.05;48.83;;;153.90;2252.80;;;;;;5013880;28;20116;-76
2021/01/05 06:55:25;;;;;;;92.13;49.45;;;153.80;2252.80;;;;;;5008561;28;20034;-76
2021/01/05 06:57:51;;;;;;;82.80;46.15;;;153.90;2252.80;;;;;;5017733;28;20022;-76
2021/01/05 07:00:26;;;;;;;93.40;53.47;;;153.90;2252.80;;;;;;5001331;28;20027;-76
2021/01/05 07:02:52;;;;;;;;;;;153.90;2252.80;;;;;;5000726;28;20022;-76
2021/01/05 07:05:18;;;;;;;88.60;48.00;;;153.80;2252.80;;;;;;5000412;28;19915;-76
2021/01/05 07:07:45;;;;;;;90.15;46.55;;;153.90;2252.80;;;;;;5007035;28;20034;-76
2021/01/05 07:10:12;;;;;;;92.85;48.85;;;153.90;2252.80;;;;;;5008881;28;20018;-76
2021/01/05 07:12:38;;;;;;;93.15;51.47;;;153.90;2252.80;;;;;;5006199;28;20083;-76
2021/01/05 07:15:06;;;;;;;92.07;48.15;;;153.90;2252.80;;;;;;4997969;28;20397;-76
2021/01/05 07:17:31;;;;;;;87.15;43.38;;;153.80;2252.80;;;;;;5016786;28;20030;-76
2021/01/05 07:19:57;;;;;;;91.93;45.63;;;153.80;2252.80;;;;;;5016222;28;20284;-76
2021/01/05 07:22:23;;;;;;;92.05;48.40;;;153.80;2252.80;;;;;;4998859;28;20062;-76
2021/01/05 07:24:49;;;;;;;94.80;50.10;;;153.80;2252.80;;;;;;5017209;28;20121;-77
2021/01/05 07:27:15;;;;;;;108.50;53.30;;;153.90;2252.80;;;;;;5014056;28;20034;-76
2021/01/05 07:29:41;;;;;;;102.45;49.58;;;153.90;2252.80;;;;;;5004113;28;20546;-76
2021/01/05 07:32:06;;;;;;;104.03;51.95;;;153.80;2252.80;;;;;;5010948;28;20033;-76
2021/01/05 07:34:37;;;;;;;103.00;50.55;;;153.80;2252.80;;;;;;5015970;28;20499;-76
2021/01/05 07:37:09;;;;;;;107.13;53.22;;;153.80;2252.80;;;;;;5011519;28;20079;-76
2021/01/05 07:39:35;;;;;;;88.68;45.45;;;153.80;2252.80;;;;;;5017344;28;20438;-76
2021/01/05 07:42:26;;;;;;;80.93;42.08;;;153.70;2252.80;;;;;;4997113;28;20030;-78
2021/01/05 07:44:55;;;;;;;84.88;43.97;;;153.70;2252.80;;;;;;5013316;28;20037;-76
2021/01/05 07:47:23;;;;;;;90.13;46.60;;;153.70;2252.80;;;;;;5010973;28;20022;-76
2021/01/05 07:49:49;;;;;;;95.80;46.63;;;153.70;2252.80;;;;;;4992691;28;20032;-77
2021/01/05 07:52:40;;;;;;;97.72;50.47;;;153.70;2252.80;;;;;;4994318;28;20437;-76
2021/01/05 07:55:10;;;;;;;88.85;46.42;;;153.60;2252.80;;;;;;4996602;28;20288;-76
2021/01/05 07:57:36;;;;;;;102.68;50.30;;;153.60;2252.80;;;;;;5000436;28;20410;-76
2021/01/05 08:00:04;;;;;;;93.35;48.75;;;153.60;2252.80;;;;;;5016004;28;20021;-76
2021/01/05 08:02:30;;;;;;;98.32;48.88;;;128.90;2252.80;;;;;;4997180;28;20034;-76
2021/01/05 08:04:56;;;;;;;84.93;45.28;;;153.60;2252.80;;;;;;4983490;28;20026;-76
2021/01/05 08:08:16;;;;;;;105.35;50.63;;;153.60;2252.80;;;;;;5005803;28;20037;-76
2021/01/05 08:10:21;;;;;;;117.38;53.22;;;153.60;2252.80;;;;;;4992542;28;20077;-76
2021/01/05 08:12:48;;;;;;;118.18;53.40;;;153.60;2252.80;;;;;;5017158;28;20504;-77
2021/01/05 08:15:22;;;;;;;141.52;59.97;;;153.60;2252.80;;;;;;4998197;28;20022;-76
2021/01/05 08:17:49;;;;;;;;;;;128.90;2252.80;;;;;;4991846;28;20094;-77
2021/01/05 08:20:19;;;;;;;128.98;53.95;;;153.60;2252.80;;;;;;4992199;28;19909;-77
2021/01/05 08:22:46;;;;;;;132.98;51.00;;;128.90;2252.80;;;;;;5016207;28;20029;-76
2021/01/05 08:25:13;;;;;;;156.75;57.72;;;128.90;2252.80;;;;;;5016671;28;20054;-76
2021/01/05 08:27:41;;;;;;;122.03;52.55;;;128.90;2252.80;;;;;;4986997;28;20081;-76
2021/01/05 08:30:07;;;;;;;123.40;52.15;;;128.90;2252.80;;;;;;4999576;28;20022;-76
2021/01/05 08:32:33;;;;;;;106.10;47.92;;;128.90;2252.80;;;;;;5017366;28;20030;-77
2021/01/05 08:34:59;;;;;;;104.97;45.72;;;128.90;2252.80;;;;;;4989024;28;20080;-76
2021/01/05 08:37:25;;;;;;;108.72;49.35;;;128.90;2252.80;;;;;;5016842;28;20026;-76
2021/01/05 08:39:51;;;;;;;104.95;46.42;;;128.90;2252.80;;;;;;5016569;28;20116;-76
2021/01/05 08:42:17;;;;;;;88.22;42.00;;;128.90;2252.80;;;;;;4997100;28;20438;-76
2021/01/05 08:44:43;;;;;;;86.15;42.33;;;128.90;2252.80;;;;;;5008542;28;20068;-76
2021/01/05 08:47:09;;;;;;;88.60;42.10;;;128.80;2252.80;;;;;;4996144;28;20669;-76
2021/01/05 08:49:35;;;;;;;105.18;45.35;;;128.80;2252.80;;;;;;4986234;28;20061;-76
2021/01/05 08:52:01;;;;;;;100.18;43.28;;;128.80;2252.80;;;;;;5014451;28;20053;-76
2021/01/05 08:54:27;;;;;;;88.13;44.45;;;128.80;2252.80;;;;;;5000575;28;20104;-76
2021/01/05 08:56:55;;;;;;;91.82;45.97;;;128.80;2252.80;;;;;;5000436;28;20018;-76
2021/01/05 08:59:21;;;;;;;95.45;48.42;;;128.90;2252.80;;;;;;5001461;28;20036;-77
2021/01/05 09:01:47;;;;;;;82.32;42.15;;;128.90;2252.80;;;;;;5001742;28;20350;-76
2021/01/05 09:04:13;;;;;;;89.60;40.00;;;128.80;2252.80;;;;;;4989048;28;20026;-77
2021/01/05 09:06:39;;;;;;;76.93;39.35;;;128.80;2252.80;;;;;;4988915;28;20030;-77
2021/01/05 09:09:05;;;;;;;79.38;41.22;;;128.80;2252.80;;;;;;5013020;28;20382;-76
2021/01/05 09:11:31;;;;;;;77.53;40.17;;;128.70;2252.80;;;;;;4993192;28;20101;-76
2021/01/05 09:13:57;;;;;;;76.97;41.40;;;128.80;2252.80;;;;;;4997216;28;20084;-76
2021/01/05 09:16:26;;;;;;;88.20;42.33;;;128.80;2252.80;;;;;;5016266;28;20049;-76
2021/01/05 09:18:53;;;;;;;65.70;35.60;;;128.80;2252.80;;;;;;5013430;28;20049;-76
2021/01/05 09:21:22;;;;;;;70.90;39.10;;;128.80;2252.80;;;;;;5003324;28;20026;-76
2021/01/05 09:23:52;;;;;;;71.82;38.58;;;128.80;2252.80;;;;;;5018356;28;20026;-76
2021/01/05 09:26:24;;;;;;;74.45;38.60;;;128.80;2252.80;;;;;;4999135;28;20077;-76
2021/01/05 09:28:51;;;;;;;77.50;41.20;;;128.80;2252.80;;;;;;4998927;28;20466;-76
2021/01/05 09:31:18;;;;;;;78.00;37.15;;;128.80;2252.80;;;;;;4998012;28;20026;-76
2021/01/05 09:33:44;;;;;;;76.13;39.80;;;128.80;2252.80;;;;;;4999145;28;20445;-76
2021/01/05 09:36:11;;;;;;;63.42;37.13;;;128.80;2252.80;;;;;;4987417;28;20128;-76
2021/01/05 09:38:39;;;;;;;57.05;33.85;;;128.90;2252.80;;;;;;4984345;28;20018;-76
2021/01/05 09:41:17;;;;;;;66.40;34.72;;;153.60;2252.80;;;;;;4984640;28;20447;-76
2021/01/05 09:43:43;;;;;;;79.25;41.35;;;153.60;2252.80;;;;;;4989786;28;20030;-76
2021/01/05 09:46:11;;;;;;;85.70;43.80;;;128.90;2252.80;;;;;;5015128;28;20022;-76
2021/01/05 09:48:37;;;;;;;74.82;38.80;;;153.60;2252.80;;;;;;4989507;28;20022;-76
2021/01/05 09:51:03;;;;;;;78.07;44.17;;;153.60;2252.80;;;;;;5002145;28;20025;-76
2021/01/05 09:53:29;;;;;;;90.13;44.58;;;153.60;2252.80;;;;;;4984121;28;20029;-76
2021/01/05 09:55:55;;;;;;;86.97;43.38;;;153.60;2252.80;;;;;;5016306;28;20018;-76
2021/01/05 09:58:20;;;;;;;94.30;44.17;;;153.60;2252.80;;;;;;4999643;28;20374;-77
2021/01/05 10:00:46;;;;;;;79.75;41.28;;;153.60;2252.80;;;;;;4996741;28;20397;-76
2021/01/05 10:03:12;;;;;;;84.85;43.75;;;153.60;2252.80;;;;;;4987676;28;20030;-76
2021/01/05 10:05:38;;;;;;;85.95;44.78;;;153.60;2252.80;;;;;;4995871;28;20022;-76
2021/01/05 10:08:04;;;;;;;87.80;47.90;;;128.90;2252.80;;;;;;5004450;28;20477;-76
2021/01/05 10:10:30;;;;;;;85.15;42.58;;;153.60;2252.80;;;;;;5013230;28;20036;-77
2021/01/05 10:12:56;;;;;;;74.82;40.08;;;153.60;2252.80;;;;;;4992164;28;20026;-76
2021/01/05 10:15:24;;;;;;;75.13;38.22;;;153.60;2252.80;;;;;;4985662;28;20525;-76
2021/01/05 10:17:50;;;;;;;69.85;36.08;;;128.90;2252.80;;;;;;5015484;28;20438;-77
2021/01/05 10:20:20;;;;;;;68.18;37.63;;;128.90;2252.80;;;;;;4988139;28;20034;-76
2021/01/05 10:22:47;;;;;;;61.92;36.75;;;128.90;2252.80;;;;;;5017539;28;20068;-76
2021/01/05 10:25:14;;;;;;;64.72;37.13;;;153.60;2252.80;;;;;;4980501;28;20508;-76
2021/01/05 10:27:39;;;;;;;67.50;39.10;;;153.60;2252.80;;;;;;4989821;28;20046;-76
2021/01/05 10:30:08;;;;;;;56.35;37.28;;;153.70;2252.80;;;;;;5016320;28;20025;-76
2021/01/05 10:32:35;;;;;;;57.63;34.38;;;153.70;2252.80;;;;;;5016505;28;20072;-76
2021/01/05 10:35:01;;;;;;;62.85;38.20;;;153.70;2252.80;;;;;;5016496;28;20333;-76
2021/01/05 10:37:27;;;;;;;63.55;37.70;;;153.70;2252.80;;;;;;5015754;28;20033;-77
2021/01/05 10:39:52;;;;;;;60.65;38.20;;;153.80;2252.80;;;;;;5014210;28;20021;-77
2021/01/05 10:42:18;;;;;;;55.22;34.97;;;153.90;2252.80;;;;;;4998516;28;20087;-76
2021/01/05 10:44:44;;;;;;;58.05;33.17;;;153.80;2252.80;;;;;;5013765;28;20022;-77
2021/01/05 10:47:14;;;;;;;65.68;36.95;;;153.80;2252.80;;;;;;4997924;28;20057;-76
2021/01/05 10:49:41;;;;;;;65.50;37.08;;;153.80;2252.80;;;;;;4988583;28;20434;-76
2021/01/05 10:52:12;;;;;;;59.72;36.55;;;153.80;2252.80;;;;;;4988012;28;20026;-76
2021/01/05 10:55:23;;;;;;;66.22;41.63;;;153.90;2252.80;;;;;;5016355;28;20157;-76
2021/01/05 10:58:06;;;;;;;63.53;36.22;;;153.90;2252.80;;;;;;4982726;28;20464;-76
2021/01/05 11:00:34;;;;;;;63.65;39.17;;;153.80;2252.80;;;;;;4962132;28;20101;-76
2021/01/05 11:03:01;;;;;;;63.10;37.42;;;153.80;2252.80;;;;;;4975325;28;20030;-76
2021/01/05 11:05:29;;;;;;;59.10;36.60;;;153.70;2252.80;;;;;;4971046;28;20041;-76
2021/01/05 11:07:55;;;;;;;64.10;39.97;;;153.80;2252.80;;;;;;4976580;28;20041;-76
2021/01/05 11:10:24;;;;;;;66.82;38.75;;;153.70;2252.80;;;;;;4967861;28;20039;-76
2021/01/05 11:12:50;;;;;;;59.45;36.08;;;153.70;2252.80;;;;;;4972581;28;20030;-76
2021/01/05 11:15:16;;;;;;;60.90;37.35;;;153.70;2252.80;;;;;;4994841;28;20024;-76
2021/01/05 11:17:45;;;;;;;65.40;36.53;;;153.70;2252.80;;;;;;4977851;28;20517;-76
2021/01/05 11:20:13;;;;;;;63.33;37.25;;;153.70;2252.80;;;;;;4977730;28;20033;-76
2021/01/05 11:22:50;;;;;;;69.53;43.03;;;153.70;2252.80;;;;;;4974130;28;20041;-76
2021/01/05 11:25:17;;;;;;;74.38;40.88;;;153.70;2252.80;;;;;;4995805;28;20140;-76
2021/01/05 11:27:43;;;;;;;75.80;45.97;;;153.80;2252.80;;;;;;5012057;28;20386;-76
2021/01/05 11:30:12;;;;;;;62.67;37.83;;;153.70;2252.80;;;;;;5012844;28;20056;-76
2021/01/05 11:32:40;;;;;;;71.13;42.00;;;153.70;2252.80;;;;;;4994095;28;20029;-76
2021/01/05 11:35:09;;;;;;;59.88;37.45;;;153.70;2252.80;;;;;;4985266;28;20018;-77
2021/01/05 11:37:40;;;;;;;56.92;36.75;;;153.70;2252.80;;;;;;4997563;28;20427;-76
2021/01/05 11:40:25;;;;;;;65.40;38.80;;;153.70;2252.80;;;;;;5010286;28;20328;-76
2021/01/05 11:42:51;;;;;;;83.20;47.03;;;128.90;2252.80;;;;;;4991067;28;20033;-76
2021/01/05 11:45:18;;;;;;;70.32;42.50;;;153.60;2252.80;;;;;;4991599;28;20026;-76
2021/01/05 11:47:44;;;;;;;70.47;39.58;;;128.90;2252.80;;;;;;4995780;28;20045;-76
2021/01/05 11:50:21;;;;;;;57.47;36.22;;;128.90;2252.80;;;;;;4996305;28;20029;-77
2021/01/05 11:52:47;;;;;;;58.35;36.35;;;128.90;2252.80;;;;;;4995972;28;20437;-77
2021/01/05 11:55:13;;;;;;;63.00;36.38;;;128.90;2252.80;;;;;;4996109;28;20041;-76
2021/01/05 11:57:39;;;;;;;57.97;35.42;;;128.90;2252.80;;;;;;4992511;28;20496;-76
2021/01/05 12:00:16;;;;;;;53.92;34.63;;;153.60;2252.80;;;;;;4993223;28;20076;-77
2021/01/05 12:02:47;;;;;;;62.25;38.03;;;153.60;2252.80;;;;;;4996092;28;20338;-76
2021/01/05 12:05:14;;;;;;;56.85;36.65;;;153.70;2252.80;;;;;;4992796;28;20029;-76
2021/01/05 12:07:43;;;;;;;68.65;42.65;;;153.70;2252.80;;;;;;5002144;28;20102;-77
2021/01/05 12:10:09;;;;;;;70.13;43.53;;;153.70;2252.80;;;;;;5022107;28;20022;-76
2021/01/05 12:12:36;;;;;;;70.78;40.80;;;153.70;2252.80;;;;;;5008472;28;20022;-76
2021/01/05 12:15:03;;;;;;;64.68;40.95;;;153.70;2252.80;;;;;;5001153;28;20494;-76
2021/01/05 12:17:40;;;;;;;62.80;40.78;;;153.70;2252.80;;;;;;4992190;28;20342;-76